EBCI - Charleroi/Gosselies, Belgium
Distance de la station: NE 18km
Mise à jour: 19/08/2018 01:20
quelques nuages
quelques nuages
 Wind from SO
Vent: SO 6 km/h
Température: 15°C
Point de rosée: 13°C
Humidité: 88%
Baromètre: 1024 hPa
Ciel: quelques nuages
Visibilité: 10 km
Détails du ciel: quelques nuages 1036 m
2018/08/18 23:20 EBCI 182320Z 22003KT 9999 FEW034 15/13 Q1024 NOSIG
EBFS - Florennes, Belgium
Distance de la station: ESE 31km
Mise à jour: 19/08/2018 01:25
partiellement nuageux
partiellement nuageux
 Wind from varies
Vent: varies 0 km/h
Température: 15°C
Point de rosée: 12°C
Humidité: 82%
Baromètre: 1024 hPa
Ciel: partiellement nuageux
Visibilité: 10 km
Détails du ciel: quelques nuages 4572 m
partiellement nuageux 6706 m
2018/08/18 23:25 EBFS 182325Z AUTO //////KT 9999 FEW150/// SCT220/// 15/12 Q1024 BLU
EBCV - Chievres, Belgium
Distance de la station: NO 40km
Mise à jour: 19/08/2018 01:25
clair
clair
 Wind from SO
Vent: SO 9 km/h
Température: 15°C
Point de rosée: 13°C
Humidité: 88%
Baromètre: 1023 hPa
Ciel: clair
Visibilité: 10 km
2018/08/18 23:25 EBCV 182325Z AUTO 23005KT 9999 NCD 15/13 Q1023 BLU
 
EBBE - Beauvechain, Belgium
Distance de la station: NE 57km
Mise à jour: 19/08/2018 01:25
nuageux
nuageux
 Wind from SO
Vent: SO 9 km/h
Température: 17°C
Point de rosée: 13°C
Humidité: 77%
Baromètre: 1023 hPa
Ciel: nuageux
Visibilité: 10 km
Détails du ciel: nuageux 1067 m
2018/08/18 23:25 EBBE 182325Z AUTO 22005KT 9999 BKN035/// 17/13 Q1023 BLU
EBBR - Brussels National, Belgium
Distance de la station: NNE 63km
Mise à jour: 19/08/2018 01:20
partiellement nuageux
partiellement nuageux
 Wind from OSO
Vent: OSO 9 km/h
Température: 17°C
Point de rosée: 13°C
Humidité: 77%
Baromètre: 1023 hPa
Ciel: partiellement nuageux
Visibilité: 10 km
Détails du ciel: partiellement nuageux 1158 m
2018/08/18 23:20 EBBR 182320Z 24005KT 9999 SCT038 17/13 Q1023 NOSIG
LFQI - Cambrai/Epinoy, France
Distance de la station: O 82km
Mise à jour: 29/06/2012 12:30
NOT Current

 Wind from SO
Vent: SO 17 km/h
Température: 18°C
Point de rosée: 14°C
Humidité: 78%
Baromètre: 1009 hPa
2012/06/29 10:30 LFQI 291030Z AUTO 22009KT //// // ///////// 18/14 Q1009
 
LFQQ - Lille/Lesquin, France
Distance de la station: ONO 86km
Mise à jour: 19/08/2018 01:30
nuageux
nuageux
 Wind from SO
Vent: SO 9 km/h
Température: 16°C
Point de rosée: 14°C
Humidité: 88%
Baromètre: 1023 hPa
Ciel: nuageux
Visibilité: 10 km
Détails du ciel: quelques nuages 1189 m
nuageux 3048 m
nuageux 3658 m
2018/08/18 23:30 LFQQ 182330Z AUTO 22005KT 9999 FEW039 BKN100 BKN120 16/14 Q1023 TEMPO BKN012
EBLG - Bierset/Liege, Belgium
Distance de la station: ENE 89km
Mise à jour: 19/08/2018 01:20
clair
clair
 Wind from SO
Vent: SO 13 km/h
Température: 16°C
Point de rosée: 13°C
Humidité: 83%
Baromètre: 1023 hPa
Résumé: clair
Visibilité: greater than 10 km
2018/08/18 23:20 EBLG 182320Z 23007KT CAVOK 16/13 Q1023 NOSIG
EBDT - Schaffen, Belgium
Distance de la station: NE 93km
Mise à jour: 19/08/2018 01:25
nuageux
nuageux
 Wind from SO
Vent: SO 6 km/h
Température: 18°C
Point de rosée: 13°C
Humidité: 73%
Baromètre: 1023 hPa
Ciel: nuageux
Visibilité: 10 km
Détails du ciel: nuageux 1128 m
2018/08/18 23:25 EBDT 182325Z AUTO 23003KT 9999 BKN037/// 18/13 Q1023 BLU
 
EBAW - Antwerp/Deurne, Belgium
Distance de la station: N 96km
Mise à jour: 19/08/2018 01:20
clair
clair
 Wind from OSO
Vent: OSO 11 km/h
Température: 18°C
Point de rosée: 13°C
Humidité: 73%
Baromètre: 1023 hPa
Résumé: clair
Visibilité: greater than 10 km
2018/08/18 23:20 EBAW 182320Z AUTO 25006KT CAVOK 18/13 Q1023
LFAQ - Bray, France
Distance de la station: OSO 119km
Mise à jour: 19/08/2018 01:30
couvert
couvert
 Wind from O
Vent: O 9 km/h
Température: 16°C
Point de rosée: 15°C
Humidité: 94%
Baromètre: 1023 hPa
Ciel: couvert
Visibilité: 10 km
Détails du ciel: couvert 1128 m
2018/08/18 23:30 LFAQ 182330Z AUTO 26005KT 9999 OVC037 16/15 Q1023
LFSR - Reims/Champagne, France
Distance de la station: S 120km
Mise à jour: 16/04/2012 09:00
NOT Current
partiellement nuageux
partiellement nuageux
 Wind from N
Vent: N 17 km/h
Température: 4°C
Température ressentie: 0°C
Point de rosée: 0°C
Humidité: 75%
Baromètre: 1022 hPa
Ciel: partiellement nuageux
Visibilité: 10 km
2012/04/16 07:00 LFSR 160700Z AUTO 01009KT 340V070 9999 NSC 04/00 Q1022
 
EHWO - Woensdrecht, Netherlands
Distance de la station: N 122km
Mise à jour: 19/08/2018 01:25
nuageux
nuageux
 Wind from SO
Vent: SO 11 km/h
Température: 18°C
Point de rosée: 13°C
Humidité: 73%
Baromètre: 1022 hPa
Ciel: nuageux
Visibilité: 10 km
Détails du ciel: partiellement nuageux 1128 m
nuageux 11887 m
2018/08/18 23:25 EHWO 182325Z AUTO 22006KT 9999 SCT037 BKN390 18/13 Q1022 BLU
EHBK - Zuid-Limburg, Netherlands
Distance de la station: ENE 123km
Mise à jour: 19/08/2018 01:25
partiellement nuageux
partiellement nuageux
 Wind from SSO
Vent: SSO 9 km/h
Température: 15°C
Point de rosée: 13°C
Humidité: 88%
Baromètre: 1023 hPa
Ciel: partiellement nuageux
Visibilité: 10 km
2018/08/18 23:25 EHBK 182325Z AUTO 21005KT 9999 NSC 15/13 Q1023
EBBL - Kleine-Brogel, Belgium
Distance de la station: NE 124km
Mise à jour: 19/08/2018 01:25
clair
clair
 Wind from varies
Vent: varies 4 km/h
Température: 16°C
Point de rosée: 13°C
Humidité: 83%
Baromètre: 1023 hPa
Ciel: clair
Visibilité: 10 km
2018/08/18 23:25 EBBL 182325Z AUTO VRB02KT 9999 NCD 16/13 Q1023 BLU
 
EBLB - Elsenborn, Belgium
Distance de la station: E 135km
Mise à jour: 19/08/2018 01:25
clair
clair
 Wind from calm
Vent: calme
Température: 10°C
Point de rosée: 9°C
Humidité: 94%
Baromètre: 1025 hPa
Ciel: clair
Visibilité: 10 km
2018/08/18 23:25 EBLB 182325Z AUTO 00000KT 9999 NCD 10/09 Q1025 BLU
EBOS - Oostende Airport, Belgium
Distance de la station: NO 136km
Mise à jour: 19/08/2018 01:20
nuageux
nuageux
 Wind from SSO
Vent: SSO 13 km/h
Température: 16°C
Point de rosée: 13°C
Humidité: 83%
Baromètre: 1022 hPa
Ciel: nuageux
Visibilité: 10 km
Détails du ciel: quelques nuages 671 m
nuageux 1128 m
2018/08/18 23:20 EBOS 182320Z 20007KT 9999 FEW022 BKN037 16/13 Q1022 NOSIG
EBFN - Koksijde, Belgium
Distance de la station: NO 140km
Mise à jour: 19/08/2018 01:25
couvert
couvert
 Wind from SSO
Vent: SSO 13 km/h
Température: 16°C
Point de rosée: 14°C
Humidité: 88%
Baromètre: 1022 hPa
Ciel: couvert
Visibilité: 9 km
Détails du ciel: couvert 1128 m
2018/08/18 23:25 EBFN 182325Z AUTO 21007KT 9000 OVC037/// 16/14 Q1022 BLU
 
ETNG - Geilenkirchen, Germany
Distance de la station: ENE 142km
Mise à jour: 17/08/2018 17:50
NOT Current
clair
clair
 Wind from NO
Vent: NO 11 km/h
Température: 24°C
Point de rosée: 10°C
Humidité: 41%
Baromètre: 1019 hPa
Résumé: clair
Visibilité: greater than 10 km
2018/08/17 15:50 ETNG 171550Z 31006KT CAVOK 24/10 Q1019 NOSIG
EHGR - Gilze-Rijen, Netherlands
Distance de la station: NNE 143km
Mise à jour: 19/08/2018 01:25
couvert
couvert
 Wind from SSO
Vent: SSO 9 km/h
Température: 18°C
Point de rosée: 15°C
Humidité: 83%
Baromètre: 1022 hPa
Ciel: couvert
Visibilité: 10 km
Détails du ciel: couvert 1097 m
2018/08/18 23:25 EHGR 182325Z AUTO 20005KT 180V240 9999 OVC036 18/15 Q1022 BLU
EHEH - Eindhoven, Netherlands
Distance de la station: NNE 147km
Mise à jour: 19/08/2018 01:25
couvert
couvert
 Wind from SSO
Vent: SSO 7 km/h
Température: 18°C
Point de rosée: 14°C
Humidité: 78%
Baromètre: 1022 hPa
Ciel: couvert
Visibilité: 10 km
Détails du ciel: couvert 1128 m
2018/08/18 23:25 EHEH 182325Z AUTO 20004KT 9999 OVC037 18/14 Q1022 BLU
 
ELLX - Luxembourg, Luxembourg
Distance de la station: ESE 162km
Mise à jour: 19/08/2018 01:20
clair
clair
 Wind from NNO
Vent: NNO 17 km/h
Température: 16°C
Point de rosée: 11°C
Humidité: 72%
Baromètre: 1024 hPa
Résumé: clair
Visibilité: greater than 10 km
2018/08/18 23:20 ELLX 182320Z 33009KT CAVOK 16/11 Q1024 NOSIG
EHVK - Volkel, Netherlands
Distance de la station: NE 174km
Mise à jour: 19/08/2018 01:25
couvert
couvert
 Wind from SSO
Vent: SSO 6 km/h
Température: 16°C
Point de rosée: 14°C
Humidité: 88%
Baromètre: 1022 hPa
Ciel: couvert
Visibilité: 10 km
Détails du ciel: quelques nuages 1250 m
couvert 11582 m
2018/08/18 23:25 EHVK 182325Z AUTO 20003KT 180V260 9999 FEW041 OVC380 16/14 Q1022 BLU
LFOK - Chalons/Vatry, France
Distance de la station: S 174km
Mise à jour: 19/08/2018 01:30
clair
clair
 Wind from NNE
Vent: NNE 11 km/h
Température: 16°C
Point de rosée: 12°C
Humidité: 77%
Baromètre: 1023 hPa
Résumé: clair
Visibilité: greater than 10 km
2018/08/18 23:30 LFOK 182330Z AUTO 03006KT CAVOK 16/12 Q1023 NOSIG

Script from Saratoga-Weather.org